createdAt,value
2023-03-02T00:04:54.132Z,98622.19
2023-03-02T00:09:56.011Z,98625.69
2023-03-02T00:14:57.952Z,98614.59
2023-03-02T00:19:59.827Z,98626.59
2023-03-02T00:25:01.926Z,98630.06
2023-03-02T00:30:05.977Z,98639.47
2023-03-02T00:35:08.459Z,98640.31
2023-03-02T00:40:11.189Z,98648.69
2023-03-02T00:45:13.765Z,98660.41
2023-03-02T00:50:15.717Z,98654.25
2023-03-02T00:55:17.641Z,98661.13
2023-03-02T01:00:19.881Z,98656.81
2023-03-02T01:05:21.799Z,98662.81
2023-03-02T01:10:23.657Z,98670.53
2023-03-02T01:15:25.746Z,98674.69
2023-03-02T01:20:27.812Z,98664.22
2023-03-02T01:25:29.774Z,98675.16
2023-03-02T01:30:31.653Z,98666.44
2023-03-02T01:35:33.589Z,98672.44
2023-03-02T01:40:35.502Z,98685.44
2023-03-02T01:45:55.851Z,98695.91
2023-03-02T01:50:57.771Z,98698.66
2023-03-02T01:55:59.767Z,98708.13
2023-03-02T02:01:01.769Z,98704.84
2023-03-02T02:06:09.438Z,98691.00
2023-03-02T02:11:12.106Z,98691.25
2023-03-02T02:16:14.163Z,98700.66
2023-03-02T02:21:16.090Z,98696.50
2023-03-02T02:26:35.713Z,98685.47
2023-03-02T02:31:56.002Z,98719.69
2023-03-02T02:37:12.692Z,98709.34
2023-03-02T02:42:18.276Z,98716.13
2023-03-02T02:47:21.294Z,98716.09
2023-03-02T02:52:25.662Z,98716.09
2023-03-02T02:57:28.880Z,98725.41
2023-03-02T03:02:31.650Z,98747.44
2023-03-02T03:07:33.684Z,98750.06
2023-03-02T03:12:35.558Z,98739.75
2023-03-02T03:17:37.528Z,98749.06
2023-03-02T03:22:39.606Z,98743.19
2023-03-02T03:27:44.574Z,98736.25
2023-03-02T03:32:46.547Z,98729.28
2023-03-02T03:37:48.474Z,98725.88
2023-03-02T03:42:50.361Z,98728.53
2023-03-02T03:47:52.411Z,98725.06
2023-03-02T03:52:54.325Z,98724.31
2023-03-02T03:57:59.192Z,98727.66
2023-03-02T04:03:01.112Z,98734.56
2023-03-02T04:08:03.129Z,98735.34
2023-03-02T04:13:05.229Z,98729.41
2023-03-02T04:18:07.622Z,98738.88
2023-03-02T04:23:09.513Z,98746.75
2023-03-02T04:28:11.360Z,98739.03
2023-03-02T04:33:13.238Z,98750.91
2023-03-02T04:38:15.189Z,98760.38
2023-03-02T04:43:17.010Z,98781.78
2023-03-02T04:48:18.806Z,98789.31
2023-03-02T04:53:20.582Z,98809.19
2023-03-02T04:58:22.358Z,98796.41
2023-03-02T05:03:24.175Z,98814.44
2023-03-02T05:08:25.967Z,98815.50
2023-03-02T05:13:27.843Z,98815.53
2023-03-02T05:18:29.626Z,98823.38
2023-03-02T05:23:31.394Z,98824.09
2023-03-02T05:28:33.158Z,98826.78
2023-03-02T05:33:35.034Z,98829.47
2023-03-02T05:38:36.830Z,98822.69
2023-03-02T05:43:38.664Z,98824.59
2023-03-02T05:48:40.534Z,98827.16
2023-03-02T05:53:42.345Z,98823.16
2023-03-02T05:58:44.117Z,98811.53
2023-03-02T06:03:45.931Z,98815.38
2023-03-02T06:08:47.853Z,98830.50
2023-03-02T06:13:49.668Z,98833.25
2023-03-02T06:18:51.476Z,98834.03
2023-03-02T06:23:53.271Z,98824.56
2023-03-02T06:28:55.055Z,98839.22
2023-03-02T06:33:56.846Z,98828.06
2023-03-02T06:38:58.627Z,98821.41
2023-03-02T06:44:00.908Z,98814.69
2023-03-02T06:49:02.908Z,98800.91
2023-03-02T06:54:05.602Z,98789.75
2023-03-02T06:59:07.182Z,98807.84
2023-03-02T07:04:08.941Z,98813.13
2023-03-02T07:09:10.788Z,98801.94
2023-03-02T07:14:12.586Z,98799.31
2023-03-02T07:19:14.603Z,98802.81
2023-03-02T07:24:16.409Z,98800.19
2023-03-02T07:29:18.215Z,98807.94
2023-03-02T07:34:20.043Z,98801.91
2023-03-02T07:39:21.911Z,98806.16
2023-03-02T07:44:23.702Z,98812.97
2023-03-02T07:49:25.602Z,98806.94
2023-03-02T07:54:27.395Z,98814.66
2023-03-02T07:59:29.178Z,98806.06
2023-03-02T08:04:30.974Z,98794.94
2023-03-02T08:09:32.840Z,98776.88
2023-03-02T08:14:34.607Z,98770.84
2023-03-02T08:19:36.413Z,98770.84
2023-03-02T08:24:38.339Z,98771.69
2023-03-02T08:29:40.100Z,98777.78
2023-03-02T08:34:41.886Z,98780.34
2023-03-02T08:39:43.859Z,98779.50
2023-03-02T08:44:45.683Z,98781.22
2023-03-02T08:49:48.304Z,98776.91
2023-03-02T08:54:50.315Z,98780.31
2023-03-02T08:59:52.119Z,98771.69
2023-03-02T09:04:53.930Z,98788.97
2023-03-02T09:09:55.762Z,98780.34
2023-03-02T09:14:57.570Z,98774.31
2023-03-02T09:19:59.360Z,98767.41
2023-03-02T09:25:01.255Z,98768.25
2023-03-02T09:30:03.101Z,98757.94
2023-03-02T09:35:06.370Z,98736.34
2023-03-02T09:40:27.568Z,98728.38
2023-03-02T09:45:56.943Z,98723.19
2023-03-02T09:51:28.340Z,98733.66
2023-03-02T09:56:30.418Z,98720.66
2023-03-02T10:01:41.987Z,98710.31
2023-03-02T10:06:43.772Z,98698.97
2023-03-02T10:12:16.273Z,98695.53
2023-03-02T10:17:37.341Z,98686.72
2023-03-02T10:22:42.445Z,98682.34
2023-03-02T10:27:47.910Z,98671.16
2023-03-02T10:32:50.633Z,98673.22
2023-03-02T10:37:52.724Z,98656.13
2023-03-02T10:42:54.507Z,98650.94
2023-03-02T10:48:10.357Z,98645.78
2023-03-02T10:53:16.876Z,98637.19
2023-03-02T10:58:22.934Z,98638.88
2023-03-02T11:03:24.771Z,98622.47
2023-03-02T11:08:27.901Z,98612.06
2023-03-02T11:13:33.639Z,98593.97
2023-03-02T11:18:50.944Z,98581.09
2023-03-02T11:23:56.214Z,98588.06
2023-03-02T11:29:40.573Z,98574.25
2023-03-02T11:34:47.138Z,98557.84
2023-03-02T11:39:55.814Z,98575.13
2023-03-02T11:45:00.965Z,98571.69
2023-03-02T11:50:04.086Z,98565.66
2023-03-02T11:55:20.936Z,98563.94
2023-03-02T12:00:38.927Z,98544.03
2023-03-02T12:05:41.151Z,98554.22
2023-03-02T12:10:44.778Z,98557.69
2023-03-02T12:15:49.922Z,98551.78
2023-03-02T12:21:07.884Z,98543.94
2023-03-02T12:26:29.658Z,98526.81
2023-03-02T12:31:49.024Z,98519.91
2023-03-02T12:36:54.873Z,98515.56
2023-03-02T12:42:20.427Z,98496.69
2023-03-02T12:47:25.769Z,98485.47
2023-03-02T12:52:33.651Z,98485.47
2023-03-02T12:57:38.419Z,98466.50
2023-03-02T13:02:48.449Z,98439.03
2023-03-02T13:08:00.250Z,98427.84
2023-03-02T13:13:02.331Z,98427.91
2023-03-02T13:18:04.258Z,98428.78
2023-03-02T13:23:07.434Z,98428.78
2023-03-02T13:28:27.327Z,98416.72
2023-03-02T13:33:29.601Z,98393.50
2023-03-02T13:38:36.619Z,98394.38
2023-03-02T13:43:39.590Z,98379.75
2023-03-02T13:48:42.033Z,98374.56
2023-03-02T13:53:50.681Z,98361.66
2023-03-02T13:58:52.537Z,98359.09
2023-03-02T14:03:56.423Z,98340.19
2023-03-02T14:08:59.246Z,98352.22
2023-03-02T14:14:01.167Z,98326.41
2023-03-02T14:19:03.183Z,98335.88
2023-03-02T14:24:05.414Z,98328.97
2023-03-02T14:29:21.753Z,98311.78
2023-03-02T14:34:23.731Z,98294.59
2023-03-02T14:39:35.917Z,98292.00
2023-03-02T14:44:37.783Z,98283.41
2023-03-02T14:49:39.793Z,98269.66
2023-03-02T14:54:52.296Z,98267.09
2023-03-02T14:59:54.309Z,98276.53
2023-03-02T15:04:56.714Z,98265.34
2023-03-02T15:09:58.921Z,98267.09
2023-03-02T15:15:00.878Z,98264.50
2023-03-02T15:20:02.812Z,98273.09
2023-03-02T15:25:05.546Z,98257.63
2023-03-02T15:30:08.159Z,98274.78
2023-03-02T15:35:10.263Z,98249.88
2023-03-02T15:40:12.489Z,98254.16
2023-03-02T15:45:14.576Z,98271.34
2023-03-02T15:50:17.001Z,98266.22
2023-03-02T15:55:19.496Z,98267.06
2023-03-02T16:00:21.742Z,98264.47
2023-03-02T16:05:23.745Z,98263.63
2023-03-02T16:10:25.620Z,98261.03
2023-03-02T16:15:27.422Z,98267.91
2023-03-02T16:20:29.269Z,98262.75
2023-03-02T16:25:31.280Z,98256.72
2023-03-02T16:30:33.503Z,98259.28
2023-03-02T16:35:36.368Z,98261.00
2023-03-02T16:40:38.743Z,98254.97
2023-03-02T16:45:40.551Z,98235.19
2023-03-02T16:50:42.343Z,98249.81
2023-03-02T16:55:44.235Z,98229.13
2023-03-02T17:00:46.106Z,98232.56
2023-03-02T17:05:47.933Z,98222.28
2023-03-02T17:10:49.797Z,98216.25
2023-03-02T17:15:51.727Z,98227.41
2023-03-02T17:20:54.463Z,98222.22
2023-03-02T17:25:56.354Z,98226.53
2023-03-02T17:30:59.052Z,98232.53
2023-03-02T17:36:06.816Z,98216.16
2023-03-02T17:41:09.396Z,98230.78
2023-03-02T17:46:12.009Z,98225.56
2023-03-02T17:51:14.457Z,98235.03
2023-03-02T17:56:17.359Z,98225.53
2023-03-02T18:01:19.367Z,98231.59
2023-03-02T18:06:21.356Z,98231.59
2023-03-02T18:11:23.904Z,98228.13
2023-03-02T18:16:26.737Z,98223.78
2023-03-02T18:21:28.851Z,98212.59
2023-03-02T18:26:30.875Z,98218.59
2023-03-02T18:31:32.916Z,98205.66
2023-03-02T18:36:34.835Z,98201.31
2023-03-02T18:41:36.771Z,98215.06
2023-03-02T18:46:38.757Z,98211.59
2023-03-02T18:51:40.651Z,98210.75
2023-03-02T18:56:42.668Z,98211.56
2023-03-02T19:01:44.616Z,98202.94
2023-03-02T19:06:46.522Z,98201.16
2023-03-02T19:11:48.542Z,98195.13
2023-03-02T19:16:50.557Z,98197.69
2023-03-02T19:21:52.546Z,98186.50
2023-03-02T19:26:54.447Z,98195.91
2023-03-02T19:31:56.377Z,98183.88
2023-03-02T19:36:58.429Z,98189.06
2023-03-02T19:42:00.397Z,98178.72
2023-03-02T19:47:02.398Z,98174.38
2023-03-02T19:52:04.877Z,98170.06
2023-03-02T19:57:06.877Z,98168.38
2023-03-02T20:02:09.082Z,98164.88
2023-03-02T20:07:11.137Z,98163.13
2023-03-02T20:12:13.115Z,98149.31
2023-03-02T20:17:18.199Z,98155.34
2023-03-02T20:22:20.182Z,98146.69
2023-03-02T20:27:22.193Z,98139.81
2023-03-02T20:32:24.156Z,98143.19
2023-03-02T20:37:26.164Z,98131.97
2023-03-02T20:42:28.126Z,98123.34
2023-03-02T20:47:30.162Z,98116.44
2023-03-02T20:52:32.179Z,98113.81
2023-03-02T20:57:34.177Z,98113.72
2023-03-02T21:02:36.109Z,98113.63
2023-03-02T21:07:38.033Z,98118.00
2023-03-02T21:12:39.973Z,98115.50
2023-03-02T21:17:42.390Z,98112.00
2023-03-02T21:22:47.300Z,98115.63
2023-03-02T21:27:49.265Z,98109.63
2023-03-02T21:32:51.376Z,98107.97
2023-03-02T21:37:55.650Z,98092.53
2023-03-02T21:42:57.685Z,98089.16
2023-03-02T21:47:59.633Z,98097.78
2023-03-02T21:53:01.632Z,98088.38
2023-03-02T21:58:03.821Z,98082.25
2023-03-02T22:03:06.084Z,98085.59
2023-03-02T22:08:08.041Z,98071.69
2023-03-02T22:13:23.312Z,98063.84
2023-03-02T22:18:26.267Z,98068.03
2023-03-02T22:23:28.124Z,98052.41
2023-03-02T22:28:30.039Z,98056.03
2023-03-02T22:33:31.964Z,98051.94
2023-03-02T22:38:33.827Z,98047.66
2023-03-02T22:43:35.758Z,98040.00
2023-03-02T22:48:38.271Z,98034.09
2023-03-02T22:53:52.829Z,98053.88
2023-03-02T22:58:54.801Z,98044.38
2023-03-02T23:04:32.086Z,98047.78
2023-03-02T23:09:34.660Z,98030.53
2023-03-02T23:14:58.614Z,98033.13
2023-03-02T23:20:00.872Z,98020.22
2023-03-02T23:25:02.759Z,98015.88
2023-03-02T23:30:05.277Z,98011.59
2023-03-02T23:35:07.323Z,98002.91
2023-03-02T23:40:09.889Z,97990.91
2023-03-02T23:45:11.831Z,97992.53
2023-03-02T23:50:13.771Z,97978.59
2023-03-02T23:55:15.644Z,97977.59
